Otis, Kansas
Current Conditions -  °F | °C
As of 6:35 AM on Monday 26 Jan 2015 (Local Time) from KGBD Reporting Station
Clear Clear  
Wind Chill: -1°   Ceiling: Unl
Heat Index:   Visibility: 10mi
Dew Point: -3°   Wind: 13mph
Humidity: 65%   Direction: 280°W
Pressure: 30.03"   Gusts: NA
Location:  38.53°N, 99.05°W
Report Text: KGBD 261235Z AUTO 28011KT 10SM CLR 03/M03 A3003 RMK AO1
Loading
Personal Weather Stations






























Interactive Weather Map New forecast layout! Learn more

10-Day Weather Forecast

Advertisements
Track Severe Weather on mobile